sensor_id;sensor_type;location;lat;lon;timestamp;temperature;humidity
74657;DHT22;63185;45.642;13.764;2022-12-07T00:01:17;10.60;68.80
74657;DHT22;63185;45.642;13.764;2022-12-07T00:03:44;10.60;69.00
74657;DHT22;63185;45.642;13.764;2022-12-07T00:06:13;10.50;69.00
74657;DHT22;63185;45.642;13.764;2022-12-07T00:08:39;10.60;69.10
74657;DHT22;63185;45.642;13.764;2022-12-07T00:11:10;10.60;69.10
74657;DHT22;63185;45.642;13.764;2022-12-07T00:13:37;10.60;69.10
74657;DHT22;63185;45.642;13.764;2022-12-07T00:16:08;10.60;68.90
74657;DHT22;63185;45.642;13.764;2022-12-07T00:18:35;10.60;68.60
74657;DHT22;63185;45.642;13.764;2022-12-07T00:21:02;10.60;68.20
74657;DHT22;63185;45.642;13.764;2022-12-07T00:23:29;10.60;68.30
74657;DHT22;63185;45.642;13.764;2022-12-07T00:25:55;10.60;67.60
74657;DHT22;63185;45.642;13.764;2022-12-07T00:28:20;10.60;67.80
74657;DHT22;63185;45.642;13.764;2022-12-07T00:30:46;10.60;67.80
74657;DHT22;63185;45.642;13.764;2022-12-07T00:33:12;10.60;68.20
74657;DHT22;63185;45.642;13.764;2022-12-07T00:35:37;10.70;67.50
74657;DHT22;63185;45.642;13.764;2022-12-07T00:38:03;10.70;67.10
74657;DHT22;63185;45.642;13.764;2022-12-07T00:40:29;10.70;67.20
74657;DHT22;63185;45.642;13.764;2022-12-07T00:42:54;10.70;67.20
74657;DHT22;63185;45.642;13.764;2022-12-07T00:45:20;10.70;67.20
74657;DHT22;63185;45.642;13.764;2022-12-07T00:47:46;10.70;67.20
74657;DHT22;63185;45.642;13.764;2022-12-07T00:50:11;10.80;66.50
74657;DHT22;63185;45.642;13.764;2022-12-07T00:52:37;10.90;66.30
74657;DHT22;63185;45.642;13.764;2022-12-07T00:55:03;10.90;66.80
74657;DHT22;63185;45.642;13.764;2022-12-07T00:57:30;10.80;67.70
74657;DHT22;63185;45.642;13.764;2022-12-07T00:59:56;10.70;68.30
74657;DHT22;63185;45.642;13.764;2022-12-07T01:02:23;10.60;69.20
74657;DHT22;63185;45.642;13.764;2022-12-07T01:04:49;10.60;69.40
74657;DHT22;63185;45.642;13.764;2022-12-07T01:07:14;10.50;69.10
74657;DHT22;63185;45.642;13.764;2022-12-07T01:09:40;10.50;69.30
74657;DHT22;63185;45.642;13.764;2022-12-07T01:12:06;10.50;69.30
74657;DHT22;63185;45.642;13.764;2022-12-07T01:14:32;10.50;69.20
74657;DHT22;63185;45.642;13.764;2022-12-07T01:16:57;10.40;69.00
74657;DHT22;63185;45.642;13.764;2022-12-07T01:19:23;10.50;68.80
74657;DHT22;63185;45.642;13.764;2022-12-07T01:21:49;10.40;68.90
74657;DHT22;63185;45.642;13.764;2022-12-07T01:24:14;10.40;69.50
74657;DHT22;63185;45.642;13.764;2022-12-07T01:26:40;10.40;70.10
74657;DHT22;63185;45.642;13.764;2022-12-07T01:29:06;10.30;70.20
74657;DHT22;63185;45.642;13.764;2022-12-07T01:31:32;10.30;70.80
74657;DHT22;63185;45.642;13.764;2022-12-07T01:33:59;10.30;71.40
74657;DHT22;63185;45.642;13.764;2022-12-07T01:36:32;10.20;71.30
74657;DHT22;63185;45.642;13.764;2022-12-07T01:39:00;10.20;71.60
74657;DHT22;63185;45.642;13.764;2022-12-07T01:41:30;10.10;71.70
74657;DHT22;63185;45.642;13.764;2022-12-07T01:46:35;10.10;71.70
74657;DHT22;63185;45.642;13.764;2022-12-07T01:49:02;10.10;71.50
74657;DHT22;63185;45.642;13.764;2022-12-07T01:51:29;10.10;71.40
74657;DHT22;63185;45.642;13.764;2022-12-07T01:53:55;10.00;71.50
74657;DHT22;63185;45.642;13.764;2022-12-07T01:56:24;10.00;71.40
74657;DHT22;63185;45.642;13.764;2022-12-07T01:58:51;10.00;71.50
74657;DHT22;63185;45.642;13.764;2022-12-07T02:01:17;10.00;71.50
74657;DHT22;63185;45.642;13.764;2022-12-07T02:03:44;10.00;71.60
74657;DHT22;63185;45.642;13.764;2022-12-07T02:06:13;10.00;71.40
74657;DHT22;63185;45.642;13.764;2022-12-07T02:08:41;10.00;71.60
74657;DHT22;63185;45.642;13.764;2022-12-07T02:11:08;10.00;71.70
74657;DHT22;63185;45.642;13.764;2022-12-07T02:13:36;10.00;71.50
74657;DHT22;63185;45.642;13.764;2022-12-07T02:16:35;9.90;71.60
74657;DHT22;63185;45.642;13.764;2022-12-07T02:30:11;10.10;70.60
74657;DHT22;63185;45.642;13.764;2022-12-07T02:35:32;10.20;70.20
74657;DHT22;63185;45.642;13.764;2022-12-07T02:40:54;10.20;70.00
74657;DHT22;63185;45.642;13.764;2022-12-07T02:43:28;10.30;69.80
74657;DHT22;63185;45.642;13.764;2022-12-07T02:45:58;10.30;69.90
74657;DHT22;63185;45.642;13.764;2022-12-07T02:48:26;10.30;70.20
74657;DHT22;63185;45.642;13.764;2022-12-07T02:50:53;10.30;69.80
74657;DHT22;63185;45.642;13.764;2022-12-07T02:53:48;10.30;70.00
74657;DHT22;63185;45.642;13.764;2022-12-07T03:11:53;10.30;69.40
74657;DHT22;63185;45.642;13.764;2022-12-07T03:14:31;10.30;69.50
74657;DHT22;63185;45.642;13.764;2022-12-07T03:17:12;10.30;69.70
74657;DHT22;63185;45.642;13.764;2022-12-07T03:19:41;10.30;69.70
74657;DHT22;63185;45.642;13.764;2022-12-07T03:22:10;10.20;69.70
74657;DHT22;63185;45.642;13.764;2022-12-07T03:29:41;10.30;69.20
74657;DHT22;63185;45.642;13.764;2022-12-07T03:32:18;10.30;69.10
74657;DHT22;63185;45.642;13.764;2022-12-07T03:34:53;10.30;69.00
74657;DHT22;63185;45.642;13.764;2022-12-07T03:40:37;10.30;68.30
74657;DHT22;63185;45.642;13.764;2022-12-07T03:43:05;10.30;69.00
74657;DHT22;63185;45.642;13.764;2022-12-07T03:48:24;10.30;69.50
74657;DHT22;63185;45.642;13.764;2022-12-07T03:53:35;10.40;68.80
74657;DHT22;63185;45.642;13.764;2022-12-07T03:56:03;10.50;68.40
74657;DHT22;63185;45.642;13.764;2022-12-07T03:58:29;10.60;67.60
74657;DHT22;63185;45.642;13.764;2022-12-07T04:00:55;10.60;67.50
74657;DHT22;63185;45.642;13.764;2022-12-07T04:03:21;10.60;67.20
74657;DHT22;63185;45.642;13.764;2022-12-07T04:05:47;10.70;67.40
74657;DHT22;63185;45.642;13.764;2022-12-07T04:08:13;10.70;67.80
74657;DHT22;63185;45.642;13.764;2022-12-07T04:10:39;10.70;67.70
74657;DHT22;63185;45.642;13.764;2022-12-07T04:13:04;10.80;67.30
74657;DHT22;63185;45.642;13.764;2022-12-07T04:15:30;10.80;67.50
74657;DHT22;63185;45.642;13.764;2022-12-07T04:17:56;10.80;66.90
74657;DHT22;63185;45.642;13.764;2022-12-07T04:20:22;10.90;66.60
74657;DHT22;63185;45.642;13.764;2022-12-07T04:22:48;10.90;66.80
74657;DHT22;63185;45.642;13.764;2022-12-07T04:25:13;11.00;66.90
74657;DHT22;63185;45.642;13.764;2022-12-07T04:27:39;11.00;67.20
74657;DHT22;63185;45.642;13.764;2022-12-07T04:30:05;11.00;67.00
74657;DHT22;63185;45.642;13.764;2022-12-07T04:32:31;11.00;66.50
74657;DHT22;63185;45.642;13.764;2022-12-07T04:34:57;11.10;66.80
74657;DHT22;63185;45.642;13.764;2022-12-07T04:37:23;11.10;66.70
74657;DHT22;63185;45.642;13.764;2022-12-07T04:39:49;11.10;66.30
74657;DHT22;63185;45.642;13.764;2022-12-07T04:42:15;11.20;66.20
74657;DHT22;63185;45.642;13.764;2022-12-07T04:44:40;11.20;66.30
74657;DHT22;63185;45.642;13.764;2022-12-07T04:47:06;11.20;66.40
74657;DHT22;63185;45.642;13.764;2022-12-07T04:49:32;11.20;66.70
74657;DHT22;63185;45.642;13.764;2022-12-07T04:51:57;11.20;66.40
74657;DHT22;63185;45.642;13.764;2022-12-07T04:54:23;11.30;66.60
74657;DHT22;63185;45.642;13.764;2022-12-07T04:56:49;11.30;66.30
74657;DHT22;63185;45.642;13.764;2022-12-07T04:59:16;11.30;65.50
74657;DHT22;63185;45.642;13.764;2022-12-07T05:01:41;11.30;65.80
74657;DHT22;63185;45.642;13.764;2022-12-07T05:04:08;11.30;65.60
74657;DHT22;63185;45.642;13.764;2022-12-07T05:06:34;11.30;65.30
74657;DHT22;63185;45.642;13.764;2022-12-07T05:09:00;11.40;65.80
74657;DHT22;63185;45.642;13.764;2022-12-07T05:11:25;11.40;65.80
74657;DHT22;63185;45.642;13.764;2022-12-07T05:14:07;11.40;65.40
74657;DHT22;63185;45.642;13.764;2022-12-07T05:16:33;11.40;65.30
74657;DHT22;63185;45.642;13.764;2022-12-07T05:18:59;11.40;65.00
74657;DHT22;63185;45.642;13.764;2022-12-07T05:21:25;11.40;65.70
74657;DHT22;63185;45.642;13.764;2022-12-07T05:23:51;11.40;65.40
74657;DHT22;63185;45.642;13.764;2022-12-07T05:26:17;11.40;65.60
74657;DHT22;63185;45.642;13.764;2022-12-07T05:28:43;11.40;65.70
74657;DHT22;63185;45.642;13.764;2022-12-07T05:31:09;11.30;65.60
74657;DHT22;63185;45.642;13.764;2022-12-07T05:33:35;11.30;66.00
74657;DHT22;63185;45.642;13.764;2022-12-07T05:36:00;11.30;65.20
74657;DHT22;63185;45.642;13.764;2022-12-07T05:38:31;11.20;65.60
74657;DHT22;63185;45.642;13.764;2022-12-07T05:41:03;11.10;65.40
74657;DHT22;63185;45.642;13.764;2022-12-07T05:43:30;11.10;65.00
74657;DHT22;63185;45.642;13.764;2022-12-07T05:45:56;11.10;65.10
74657;DHT22;63185;45.642;13.764;2022-12-07T05:48:22;11.10;65.50
74657;DHT22;63185;45.642;13.764;2022-12-07T05:50:48;11.10;65.70
74657;DHT22;63185;45.642;13.764;2022-12-07T05:53:14;11.00;65.80
74657;DHT22;63185;45.642;13.764;2022-12-07T05:55:40;11.00;66.20
74657;DHT22;63185;45.642;13.764;2022-12-07T05:58:06;11.00;66.20
74657;DHT22;63185;45.642;13.764;2022-12-07T06:00:50;11.00;65.90
74657;DHT22;63185;45.642;13.764;2022-12-07T06:03:16;11.00;65.70
74657;DHT22;63185;45.642;13.764;2022-12-07T06:05:41;11.10;65.70
74657;DHT22;63185;45.642;13.764;2022-12-07T06:08:07;11.10;65.30
74657;DHT22;63185;45.642;13.764;2022-12-07T06:10:33;11.00;66.00
74657;DHT22;63185;45.642;13.764;2022-12-07T06:12:59;11.10;65.50
74657;DHT22;63185;45.642;13.764;2022-12-07T06:15:25;11.10;64.90
74657;DHT22;63185;45.642;13.764;2022-12-07T06:17:50;11.00;65.20
74657;DHT22;63185;45.642;13.764;2022-12-07T06:20:16;11.00;65.10
74657;DHT22;63185;45.642;13.764;2022-12-07T06:22:42;10.90;65.60
74657;DHT22;63185;45.642;13.764;2022-12-07T06:25:08;10.90;65.40
74657;DHT22;63185;45.642;13.764;2022-12-07T06:27:34;10.80;65.80
74657;DHT22;63185;45.642;13.764;2022-12-07T06:30:00;10.70;65.90
74657;DHT22;63185;45.642;13.764;2022-12-07T06:32:32;10.70;66.20
74657;DHT22;63185;45.642;13.764;2022-12-07T06:34:58;10.70;66.00
74657;DHT22;63185;45.642;13.764;2022-12-07T06:37:24;10.60;66.30
74657;DHT22;63185;45.642;13.764;2022-12-07T06:39:50;10.60;66.30
74657;DHT22;63185;45.642;13.764;2022-12-07T06:42:15;10.50;66.80
74657;DHT22;63185;45.642;13.764;2022-12-07T06:44:41;10.50;67.00
74657;DHT22;63185;45.642;13.764;2022-12-07T06:47:07;10.50;66.80
74657;DHT22;63185;45.642;13.764;2022-12-07T06:49:34;10.50;67.30
74657;DHT22;63185;45.642;13.764;2022-12-07T06:52:00;10.40;66.60
74657;DHT22;63185;45.642;13.764;2022-12-07T06:54:26;10.40;66.80
74657;DHT22;63185;45.642;13.764;2022-12-07T06:56:51;10.40;66.70
74657;DHT22;63185;45.642;13.764;2022-12-07T06:59:17;10.40;67.30
74657;DHT22;63185;45.642;13.764;2022-12-07T07:01:43;10.50;67.00
74657;DHT22;63185;45.642;13.764;2022-12-07T07:04:08;10.60;66.40
74657;DHT22;63185;45.642;13.764;2022-12-07T07:06:34;10.60;66.60
74657;DHT22;63185;45.642;13.764;2022-12-07T07:09:00;10.60;66.50
74657;DHT22;63185;45.642;13.764;2022-12-07T07:11:25;10.70;66.50
74657;DHT22;63185;45.642;13.764;2022-12-07T07:13:51;10.70;66.00
74657;DHT22;63185;45.642;13.764;2022-12-07T07:16:17;10.80;65.80
74657;DHT22;63185;45.642;13.764;2022-12-07T07:18:43;10.80;65.90
74657;DHT22;63185;45.642;13.764;2022-12-07T07:21:08;10.90;65.70
74657;DHT22;63185;45.642;13.764;2022-12-07T07:23:34;11.00;65.00
74657;DHT22;63185;45.642;13.764;2022-12-07T07:26:00;11.10;65.00
74657;DHT22;63185;45.642;13.764;2022-12-07T07:28:26;11.20;64.00
74657;DHT22;63185;45.642;13.764;2022-12-07T07:30:51;11.20;64.00
74657;DHT22;63185;45.642;13.764;2022-12-07T07:33:17;11.30;64.00
74657;DHT22;63185;45.642;13.764;2022-12-07T07:35:43;11.40;64.10
74657;DHT22;63185;45.642;13.764;2022-12-07T07:38:09;11.30;63.80
74657;DHT22;63185;45.642;13.764;2022-12-07T07:40:35;11.30;63.90
74657;DHT22;63185;45.642;13.764;2022-12-07T07:43:00;11.30;64.00
74657;DHT22;63185;45.642;13.764;2022-12-07T07:45:26;11.30;63.30
74657;DHT22;63185;45.642;13.764;2022-12-07T07:47:52;11.40;63.90
74657;DHT22;63185;45.642;13.764;2022-12-07T07:50:19;11.50;64.00
74657;DHT22;63185;45.642;13.764;2022-12-07T07:52:44;11.60;63.30
74657;DHT22;63185;45.642;13.764;2022-12-07T07:55:11;11.60;63.40
74657;DHT22;63185;45.642;13.764;2022-12-07T07:57:38;11.60;63.50
74657;DHT22;63185;45.642;13.764;2022-12-07T08:00:06;11.70;63.50
74657;DHT22;63185;45.642;13.764;2022-12-07T08:02:32;11.70;63.00
74657;DHT22;63185;45.642;13.764;2022-12-07T08:04:58;11.80;63.30
74657;DHT22;63185;45.642;13.764;2022-12-07T08:07:24;11.80;63.20
74657;DHT22;63185;45.642;13.764;2022-12-07T08:09:49;11.80;63.00
74657;DHT22;63185;45.642;13.764;2022-12-07T08:12:15;11.80;62.80
74657;DHT22;63185;45.642;13.764;2022-12-07T08:14:43;11.90;63.20
74657;DHT22;63185;45.642;13.764;2022-12-07T08:17:09;11.90;63.10
74657;DHT22;63185;45.642;13.764;2022-12-07T08:19:35;12.00;63.10
74657;DHT22;63185;45.642;13.764;2022-12-07T08:22:00;12.10;62.60
74657;DHT22;63185;45.642;13.764;2022-12-07T08:24:27;12.10;62.30
74657;DHT22;63185;45.642;13.764;2022-12-07T08:26:52;12.10;61.70
74657;DHT22;63185;45.642;13.764;2022-12-07T08:29:18;12.10;61.80
74657;DHT22;63185;45.642;13.764;2022-12-07T08:31:44;12.10;62.10
74657;DHT22;63185;45.642;13.764;2022-12-07T08:34:11;12.00;62.20
74657;DHT22;63185;45.642;13.764;2022-12-07T08:36:37;12.10;62.00
74657;DHT22;63185;45.642;13.764;2022-12-07T08:39:03;12.10;61.50
74657;DHT22;63185;45.642;13.764;2022-12-07T08:41:28;12.20;61.50
74657;DHT22;63185;45.642;13.764;2022-12-07T08:43:54;12.30;61.20
74657;DHT22;63185;45.642;13.764;2022-12-07T08:46:25;12.40;60.80
74657;DHT22;63185;45.642;13.764;2022-12-07T08:49:01;12.50;60.70
74657;DHT22;63185;45.642;13.764;2022-12-07T08:51:28;12.50;60.40
74657;DHT22;63185;45.642;13.764;2022-12-07T08:53:55;12.50;60.10
74657;DHT22;63185;45.642;13.764;2022-12-07T08:56:21;12.50;60.40
74657;DHT22;63185;45.642;13.764;2022-12-07T08:58:48;12.60;60.00
74657;DHT22;63185;45.642;13.764;2022-12-07T09:01:14;12.60;60.40
74657;DHT22;63185;45.642;13.764;2022-12-07T09:03:40;12.60;60.10
74657;DHT22;63185;45.642;13.764;2022-12-07T09:06:06;12.80;60.10
74657;DHT22;63185;45.642;13.764;2022-12-07T09:08:40;12.80;59.60
74657;DHT22;63185;45.642;13.764;2022-12-07T09:11:07;12.70;59.50
74657;DHT22;63185;45.642;13.764;2022-12-07T09:13:32;12.70;60.10
74657;DHT22;63185;45.642;13.764;2022-12-07T09:15:58;12.80;59.70
74657;DHT22;63185;45.642;13.764;2022-12-07T09:18:24;12.80;59.80
74657;DHT22;63185;45.642;13.764;2022-12-07T09:20:50;12.90;59.80
74657;DHT22;63185;45.642;13.764;2022-12-07T09:23:16;12.80;59.70
74657;DHT22;63185;45.642;13.764;2022-12-07T09:25:42;12.90;59.40
74657;DHT22;63185;45.642;13.764;2022-12-07T09:28:08;12.90;59.80
74657;DHT22;63185;45.642;13.764;2022-12-07T09:30:34;12.90;60.10
74657;DHT22;63185;45.642;13.764;2022-12-07T09:33:00;12.90;59.90
74657;DHT22;63185;45.642;13.764;2022-12-07T09:35:26;13.00;59.60
74657;DHT22;63185;45.642;13.764;2022-12-07T09:37:51;12.90;59.90
74657;DHT22;63185;45.642;13.764;2022-12-07T09:40:19;12.90;59.50
74657;DHT22;63185;45.642;13.764;2022-12-07T09:42:49;12.90;59.30
74657;DHT22;63185;45.642;13.764;2022-12-07T09:45:34;13.00;59.90
74657;DHT22;63185;45.642;13.764;2022-12-07T09:48:02;13.00;59.30
74657;DHT22;63185;45.642;13.764;2022-12-07T09:50:29;12.80;59.30
74657;DHT22;63185;45.642;13.764;2022-12-07T09:53:07;12.60;60.10
74657;DHT22;63185;45.642;13.764;2022-12-07T09:55:34;12.80;59.60
74657;DHT22;63185;45.642;13.764;2022-12-07T09:58:01;12.90;59.60
74657;DHT22;63185;45.642;13.764;2022-12-07T10:00:27;12.90;58.90
74657;DHT22;63185;45.642;13.764;2022-12-07T10:03:02;12.90;59.40
74657;DHT22;63185;45.642;13.764;2022-12-07T10:05:36;13.10;59.50
74657;DHT22;63185;45.642;13.764;2022-12-07T10:08:04;13.10;59.10
74657;DHT22;63185;45.642;13.764;2022-12-07T10:10:33;13.10;58.80
74657;DHT22;63185;45.642;13.764;2022-12-07T10:13:04;13.10;58.30
74657;DHT22;63185;45.642;13.764;2022-12-07T10:15:55;13.10;58.70
74657;DHT22;63185;45.642;13.764;2022-12-07T10:21:00;13.20;58.50
74657;DHT22;63185;45.642;13.764;2022-12-07T10:23:26;13.20;58.20
74657;DHT22;63185;45.642;13.764;2022-12-07T10:25:52;13.40;58.00
74657;DHT22;63185;45.642;13.764;2022-12-07T10:28:21;13.50;58.30
74657;DHT22;63185;45.642;13.764;2022-12-07T10:30:51;13.50;57.70
74657;DHT22;63185;45.642;13.764;2022-12-07T10:35:57;13.60;57.80
74657;DHT22;63185;45.642;13.764;2022-12-07T10:38:25;13.60;57.00
74657;DHT22;63185;45.642;13.764;2022-12-07T10:41:12;13.50;56.70
74657;DHT22;63185;45.642;13.764;2022-12-07T10:43:47;13.60;56.80
74657;DHT22;63185;45.642;13.764;2022-12-07T11:00:21;13.40;56.80
74657;DHT22;63185;45.642;13.764;2022-12-07T11:06:14;13.40;57.00
74657;DHT22;63185;45.642;13.764;2022-12-07T11:14:22;13.20;57.10
74657;DHT22;63185;45.642;13.764;2022-12-07T11:19:24;13.40;57.20
74657;DHT22;63185;45.642;13.764;2022-12-07T11:22:09;13.40;56.80
74657;DHT22;63185;45.642;13.764;2022-12-07T11:24:50;13.50;56.30
74657;DHT22;63185;45.642;13.764;2022-12-07T11:32:49;13.60;56.10
74657;DHT22;63185;45.642;13.764;2022-12-07T11:35:49;13.70;56.20
74657;DHT22;63185;45.642;13.764;2022-12-07T11:38:47;13.70;55.80
74657;DHT22;63185;45.642;13.764;2022-12-07T11:41:10;13.80;55.50
74657;DHT22;63185;45.642;13.764;2022-12-07T11:49:51;13.80;55.70
74657;DHT22;63185;45.642;13.764;2022-12-07T11:52:27;13.80;55.40
74657;DHT22;63185;45.642;13.764;2022-12-07T11:54:57;13.80;55.20
74657;DHT22;63185;45.642;13.764;2022-12-07T11:57:39;13.80;55.40
74657;DHT22;63185;45.642;13.764;2022-12-07T12:00:15;13.90;55.30
74657;DHT22;63185;45.642;13.764;2022-12-07T12:03:04;13.80;54.70
74657;DHT22;63185;45.642;13.764;2022-12-07T12:05:32;13.70;55.40
74657;DHT22;63185;45.642;13.764;2022-12-07T12:08:27;13.80;54.90
74657;DHT22;63185;45.642;13.764;2022-12-07T12:21:46;13.70;54.50
74657;DHT22;63185;45.642;13.764;2022-12-07T12:24:19;13.70;55.30
74657;DHT22;63185;45.642;13.764;2022-12-07T12:26:52;13.90;55.40
74657;DHT22;63185;45.642;13.764;2022-12-07T12:29:37;14.00;54.90
74657;DHT22;63185;45.642;13.764;2022-12-07T12:32:21;14.00;54.30
74657;DHT22;63185;45.642;13.764;2022-12-07T12:37:40;14.10;54.60
74657;DHT22;63185;45.642;13.764;2022-12-07T12:45:30;14.10;54.00
74657;DHT22;63185;45.642;13.764;2022-12-07T12:48:27;14.10;53.70
74657;DHT22;63185;45.642;13.764;2022-12-07T12:54:10;14.00;54.00
74657;DHT22;63185;45.642;13.764;2022-12-07T12:57:00;14.10;53.80
74657;DHT22;63185;45.642;13.764;2022-12-07T12:59:38;14.00;53.70
74657;DHT22;63185;45.642;13.764;2022-12-07T13:02:22;13.90;54.30
74657;DHT22;63185;45.642;13.764;2022-12-07T13:04:56;13.80;54.30
74657;DHT22;63185;45.642;13.764;2022-12-07T13:23:14;13.60;54.80
74657;DHT22;63185;45.642;13.764;2022-12-07T13:25:56;13.50;54.90
74657;DHT22;63185;45.642;13.764;2022-12-07T13:28:30;13.60;55.30
74657;DHT22;63185;45.642;13.764;2022-12-07T13:33:45;13.40;55.20
74657;DHT22;63185;45.642;13.764;2022-12-07T13:36:25;13.40;55.00
74657;DHT22;63185;45.642;13.764;2022-12-07T13:38:57;13.30;55.20
74657;DHT22;63185;45.642;13.764;2022-12-07T13:41:26;13.40;55.60
74657;DHT22;63185;45.642;13.764;2022-12-07T13:44:08;13.40;55.40
74657;DHT22;63185;45.642;13.764;2022-12-07T13:49:29;13.60;55.40
74657;DHT22;63185;45.642;13.764;2022-12-07T13:54:58;13.60;54.70
74657;DHT22;63185;45.642;13.764;2022-12-07T13:57:26;13.60;55.30
74657;DHT22;63185;45.642;13.764;2022-12-07T13:59:53;13.60;55.20
74657;DHT22;63185;45.642;13.764;2022-12-07T14:02:33;13.40;54.80
74657;DHT22;63185;45.642;13.764;2022-12-07T14:05:23;13.50;55.40
74657;DHT22;63185;45.642;13.764;2022-12-07T14:13:27;13.20;55.50
74657;DHT22;63185;45.642;13.764;2022-12-07T14:15:54;13.20;55.40
74657;DHT22;63185;45.642;13.764;2022-12-07T14:18:36;13.20;55.90
74657;DHT22;63185;45.642;13.764;2022-12-07T14:23:35;13.10;55.70
74657;DHT22;63185;45.642;13.764;2022-12-07T14:26:15;13.10;56.00
74657;DHT22;63185;45.642;13.764;2022-12-07T14:28:42;13.00;56.10
74657;DHT22;63185;45.642;13.764;2022-12-07T14:31:17;13.00;56.10
74657;DHT22;63185;45.642;13.764;2022-12-07T14:33:43;13.10;56.10
74657;DHT22;63185;45.642;13.764;2022-12-07T14:36:10;13.20;55.80
74657;DHT22;63185;45.642;13.764;2022-12-07T14:38:37;13.10;56.00
74657;DHT22;63185;45.642;13.764;2022-12-07T14:41:05;13.10;56.00
74657;DHT22;63185;45.642;13.764;2022-12-07T14:43:57;13.20;56.20
74657;DHT22;63185;45.642;13.764;2022-12-07T14:46:23;13.60;54.50
74657;DHT22;63185;45.642;13.764;2022-12-07T14:48:48;14.20;53.10
74657;DHT22;63185;45.642;13.764;2022-12-07T14:51:14;14.80;51.30
74657;DHT22;63185;45.642;13.764;2022-12-07T14:53:48;15.20;50.10
74657;DHT22;63185;45.642;13.764;2022-12-07T14:56:14;15.30;49.50
74657;DHT22;63185;45.642;13.764;2022-12-07T14:58:40;15.50;48.90
74657;DHT22;63185;45.642;13.764;2022-12-07T15:01:05;15.60;48.60
74657;DHT22;63185;45.642;13.764;2022-12-07T15:03:31;15.30;49.20
74657;DHT22;63185;45.642;13.764;2022-12-07T15:05:57;15.20;49.60
74657;DHT22;63185;45.642;13.764;2022-12-07T15:08:23;15.00;50.10
74657;DHT22;63185;45.642;13.764;2022-12-07T15:10:48;14.50;51.30
74657;DHT22;63185;45.642;13.764;2022-12-07T15:13:14;13.80;52.50
74657;DHT22;63185;45.642;13.764;2022-12-07T15:15:59;13.20;54.60
74657;DHT22;63185;45.642;13.764;2022-12-07T15:18:25;12.80;55.90
74657;DHT22;63185;45.642;13.764;2022-12-07T15:20:51;12.50;56.70
74657;DHT22;63185;45.642;13.764;2022-12-07T15:23:17;12.30;57.40
74657;DHT22;63185;45.642;13.764;2022-12-07T15:25:44;12.20;57.60
74657;DHT22;63185;45.642;13.764;2022-12-07T15:28:10;12.10;58.70
74657;DHT22;63185;45.642;13.764;2022-12-07T15:30:40;12.00;58.60
74657;DHT22;63185;45.642;13.764;2022-12-07T15:33:06;11.90;59.00
74657;DHT22;63185;45.642;13.764;2022-12-07T15:35:31;11.80;59.30
74657;DHT22;63185;45.642;13.764;2022-12-07T15:37:57;11.70;59.40
74657;DHT22;63185;45.642;13.764;2022-12-07T15:40:23;11.70;59.50
74657;DHT22;63185;45.642;13.764;2022-12-07T15:42:48;11.60;59.40
74657;DHT22;63185;45.642;13.764;2022-12-07T15:45:14;11.60;60.00
74657;DHT22;63185;45.642;13.764;2022-12-07T15:47:42;11.60;60.20
74657;DHT22;63185;45.642;13.764;2022-12-07T15:50:16;11.50;60.00
74657;DHT22;63185;45.642;13.764;2022-12-07T15:52:42;11.50;60.10
74657;DHT22;63185;45.642;13.764;2022-12-07T15:55:09;11.50;60.40
74657;DHT22;63185;45.642;13.764;2022-12-07T15:57:37;11.40;60.10
74657;DHT22;63185;45.642;13.764;2022-12-07T16:00:07;11.40;60.40
74657;DHT22;63185;45.642;13.764;2022-12-07T16:02:34;11.30;60.40
74657;DHT22;63185;45.642;13.764;2022-12-07T16:05:00;11.30;60.30
74657;DHT22;63185;45.642;13.764;2022-12-07T16:07:26;11.20;60.60
74657;DHT22;63185;45.642;13.764;2022-12-07T16:09:51;11.20;60.60
74657;DHT22;63185;45.642;13.764;2022-12-07T16:12:17;11.10;60.90
74657;DHT22;63185;45.642;13.764;2022-12-07T16:14:43;11.10;60.90
74657;DHT22;63185;45.642;13.764;2022-12-07T16:17:09;11.20;60.80
74657;DHT22;63185;45.642;13.764;2022-12-07T16:19:37;11.10;61.00
74657;DHT22;63185;45.642;13.764;2022-12-07T16:22:03;11.20;60.20
74657;DHT22;63185;45.642;13.764;2022-12-07T16:24:30;11.10;60.90
74657;DHT22;63185;45.642;13.764;2022-12-07T16:26:55;11.10;60.90
74657;DHT22;63185;45.642;13.764;2022-12-07T16:29:22;11.00;61.50
74657;DHT22;63185;45.642;13.764;2022-12-07T16:31:48;11.10;61.30
74657;DHT22;63185;45.642;13.764;2022-12-07T16:34:14;11.00;61.20
74657;DHT22;63185;45.642;13.764;2022-12-07T16:36:40;11.00;61.10
74657;DHT22;63185;45.642;13.764;2022-12-07T16:39:06;10.90;61.30
74657;DHT22;63185;45.642;13.764;2022-12-07T16:41:32;11.00;61.30
74657;DHT22;63185;45.642;13.764;2022-12-07T16:44:05;11.00;61.20
74657;DHT22;63185;45.642;13.764;2022-12-07T16:46:36;11.00;61.60
74657;DHT22;63185;45.642;13.764;2022-12-07T16:49:02;11.00;61.20
74657;DHT22;63185;45.642;13.764;2022-12-07T16:51:28;10.90;61.40
74657;DHT22;63185;45.642;13.764;2022-12-07T16:53:54;10.90;61.40
74657;DHT22;63185;45.642;13.764;2022-12-07T16:56:20;11.00;61.50
74657;DHT22;63185;45.642;13.764;2022-12-07T16:58:46;11.00;61.60
74657;DHT22;63185;45.642;13.764;2022-12-07T17:01:18;10.90;61.30
74657;DHT22;63185;45.642;13.764;2022-12-07T17:03:45;10.90;61.40
74657;DHT22;63185;45.642;13.764;2022-12-07T17:06:16;10.90;61.40
74657;DHT22;63185;45.642;13.764;2022-12-07T17:08:43;10.90;61.40
74657;DHT22;63185;45.642;13.764;2022-12-07T17:11:13;10.90;61.40
74657;DHT22;63185;45.642;13.764;2022-12-07T17:13:39;11.00;61.10
74657;DHT22;63185;45.642;13.764;2022-12-07T17:16:24;11.00;61.20
74657;DHT22;63185;45.642;13.764;2022-12-07T17:18:49;10.90;61.60
74657;DHT22;63185;45.642;13.764;2022-12-07T17:21:15;10.90;61.50
74657;DHT22;63185;45.642;13.764;2022-12-07T17:23:41;10.90;61.20
74657;DHT22;63185;45.642;13.764;2022-12-07T17:26:21;11.00;61.40
74657;DHT22;63185;45.642;13.764;2022-12-07T17:28:47;10.90;61.40
74657;DHT22;63185;45.642;13.764;2022-12-07T17:31:15;11.00;61.30
74657;DHT22;63185;45.642;13.764;2022-12-07T17:33:41;11.00;61.20
74657;DHT22;63185;45.642;13.764;2022-12-07T17:36:14;10.90;61.30
74657;DHT22;63185;45.642;13.764;2022-12-07T17:38:41;10.90;61.20
74657;DHT22;63185;45.642;13.764;2022-12-07T17:41:16;10.90;60.90
74657;DHT22;63185;45.642;13.764;2022-12-07T17:44:03;11.00;61.20
74657;DHT22;63185;45.642;13.764;2022-12-07T17:46:30;11.00;60.90
74657;DHT22;63185;45.642;13.764;2022-12-07T17:48:56;10.90;61.10
74657;DHT22;63185;45.642;13.764;2022-12-07T17:51:23;10.90;61.20